Corpus Christi, TX

6:09 AM CDT on March 24, 2017 (GMT -0500)
Aransas Cliffs | | Change Station

Elev 22 ft 27.75 °N, 97.38 °W | Updated 12 seconds ago

Overcast
Overcast
71.5 °F
Feels Like 70 °F
N
6.1
Wind Variable Wind from SSE
Gusts 11.5 mph

Today
High -- | Low -- °F
--% Chance of Precip.
Yesterday
High -- | Low -- °F
Precip. -- in
Pressure 29.86 in
Visibility 10.0 miles
Clouds Mostly Cloudy 1500 ft
Overcast 2500 ft
Heat Index 70 °F
Dew Point 67 °F
Humidity 85%
Rainfall 0.00 in
Snow Depth Not available.
7:28 AM 7:43 PM
Waning Crescent, 16% visible
METAR KCRP 241051Z 15021KT 10SM BKN015 OVC025 22/21 A2986 RMK AO2 PK WND 14029/1036 SLP111 T02220206
Pressure 29.86 in
Visibility 10.0 miles
Clouds Mostly Cloudy 1500 ft
Overcast 2500 ft
Heat Index 70 °F
Dew Point 67 °F
Humidity 85%
Rainfall 0.00 in
Snow Depth Not available.
7:28 AM 7:43 PM
Waning Crescent, 16% visible
METAR KCRP 241051Z 15021KT 10SM BKN015 OVC025 22/21 A2986 RMK AO2 PK WND 14029/1036 SLP111 T02220206

Get Severe Weather Alerts

Thanks for signing up!

Be on the lookout for a verification email in your inbox.

You'll start receiving the daily forecast at 8 AM.

×

10-Day Weather Forecast

Almanac

Astronomy

Mar. 24, 2017 Rise Set
Actual Time
Civil Twilight
Nautical Twilight
Astronomical Twilight
Moon
Length of Visible Light
Length of Day
Tomorrow will be .
, % of the Moon is Illuminated

Today's Extremes

State Highs State Lows

Community

WunderPhotos

Upload Photos

1,962,540 photos uploaded!

WunderBlog® & News

Nearby

Air Quality

  Air Quality AQ Index Pollutant
Not available.

Snow Depth

Station Depth Elevation

Earthquake Activity

City Distance Mag. Time & Date
Minimum magnitude displayed is 2.5.

Earthquake Activity

City Distance Mag. Time & Date
Minimum magnitude displayed is 2.5.

Coastal Water Temperatures

Place Temperature

Stations

Nearby Weather Stations

Station Location Temp. Windchill Dew Point Humidity Wind Precip. Elev Updated Type
                   

Watches & Warnings

There are currently no watches in effect.